Time;durP1;ratioP1;P1;durP2;ratioP2;P2;SDS_P1;SDS_P2;PMS_P1;PMS_P2;Temp;Humidity;BMP_temperature;BMP_pressure;BME280_temperature;BME280_humidity;BME280_pressure;Samples;Min_cycle;Max_cycle;Signal;HPM_P1;HPM_P2
2021/06/14 00:01:29;;;;;;;7.70;2.00;;;;;;;;;;6215291;23;20340;-54
2021/06/14 00:03:55;;;;;;;4.47;1.67;;;;;;;;;;6215601;23;20490;-54
2021/06/14 00:06:22;;;;;;;4.80;2.00;;;;;;;;;;6215611;23;20005;-54
2021/06/14 00:09:01;;;;;;;3.47;1.40;;;;;;;;;;6215563;23;20012;-53
2021/06/14 00:11:33;;;;;;;6.17;1.87;;;;;;;;;;6215799;23;20004;-53
2021/06/14 00:14:00;;;;;;;6.40;1.60;;;;;;;;;;6215557;23;20000;-53
2021/06/14 00:16:27;;;;;;;3.27;1.50;;;;;;;;;;6215426;23;20016;-53
2021/06/14 00:18:53;;;;;;;5.43;1.60;;;;;;;;;;6215466;23;20059;-53
2021/06/14 00:21:21;;;;;;;4.43;1.43;;;;;;;;;;6215405;23;20009;-53
2021/06/14 00:23:47;;;;;;;4.47;1.90;;;;;;;;;;6215522;23;20000;-52
2021/06/14 00:26:15;;;;;;;5.80;1.87;;;;;;;;;;6215519;23;20004;-53
2021/06/14 00:28:42;;;;;;;4.23;1.20;;;;;;;;;;6215454;23;20005;-52
2021/06/14 00:31:10;;;;;;;4.07;1.43;;;;;;;;;;6215539;23;20004;-52
2021/06/14 00:33:37;;;;;;;4.73;1.10;;;;;;;;;;6215889;23;20010;-52
2021/06/14 00:36:04;;;;;;;4.13;1.00;;;;;;;;;;6215261;23;20020;-53
2021/06/14 00:38:31;;;;;;;1.87;0.83;;;;;;;;;;6215431;23;20008;-52
2021/06/14 00:40:58;;;;;;;8.67;1.27;;;;;;;;;;6215402;23;20059;-52
2021/06/14 00:43:25;;;;;;;3.90;1.27;;;;;;;;;;6215364;23;20008;-52
2021/06/14 00:45:52;;;;;;;1.87;1.07;;;;;;;;;;6215194;23;20348;-52
2021/06/14 00:48:19;;;;;;;4.10;1.40;;;;;;;;;;6215379;23;20016;-52
2021/06/14 00:50:47;;;;;;;4.23;1.47;;;;;;;;;;6215270;23;20001;-52
2021/06/14 00:53:16;;;;;;;2.90;1.10;;;;;;;;;;6213327;22;20028;-53
2021/06/14 00:55:44;;;;;;;3.77;1.00;;;;;;;;;;6214991;23;20332;-52
2021/06/14 00:58:11;;;;;;;1.77;0.83;;;;;;;;;;6215157;23;20024;-53
2021/06/14 01:00:38;;;;;;;1.67;0.70;;;;;;;;;;6215200;23;20008;-52
2021/06/14 01:03:05;;;;;;;3.30;0.90;;;;;;;;;;6215021;23;20012;-52
2021/06/14 01:05:34;;;;;;;2.60;1.20;;;;;;;;;;6215142;23;20004;-52
2021/06/14 01:08:01;;;;;;;4.40;1.80;;;;;;;;;;6215218;23;20017;-52
2021/06/14 01:10:28;;;;;;;5.53;1.60;;;;;;;;;;6215076;23;20443;-52
2021/06/14 01:12:54;;;;;;;4.87;1.50;;;;;;;;;;6215182;23;20031;-52
2021/06/14 01:15:28;;;;;;;4.77;1.47;;;;;;;;;;6215951;23;20039;-52
2021/06/14 01:18:03;;;;;;;4.33;2.00;;;;;;;;;;6217241;23;20004;-52
2021/06/14 01:20:46;;;;;;;3.40;1.50;;;;;;;;;;6217211;23;20367;-52
2021/06/14 01:23:22;;;;;;;6.93;2.33;;;;;;;;;;6217299;23;20003;-52
2021/06/14 01:26:08;;;;;;;4.77;1.83;;;;;;;;;;6217042;23;20013;-52
2021/06/14 01:28:35;;;;;;;4.37;1.57;;;;;;;;;;6217111;23;20455;-52
2021/06/14 01:31:03;;;;;;;2.57;1.17;;;;;;;;;;6217081;23;20016;-52
2021/06/14 01:33:31;;;;;;;3.47;1.00;;;;;;;;;;6217035;23;20079;-52
2021/06/14 01:36:00;;;;;;;2.87;0.90;;;;;;;;;;6217004;23;20013;-52
2021/06/14 01:38:28;;;;;;;2.17;0.70;;;;;;;;;;6217049;23;20011;-53
2021/06/14 01:40:57;;;;;;;2.33;1.00;;;;;;;;;;6217372;23;20000;-52
2021/06/14 01:43:24;;;;;;;1.33;0.80;;;;;;;;;;6217130;23;20079;-52
2021/06/14 01:46:04;;;;;;;5.63;0.83;;;;;;;;;;6217024;23;20027;-52
2021/06/14 01:48:32;;;;;;;1.60;0.67;;;;;;;;;;6217240;23;19997;-52
2021/06/14 01:50:59;;;;;;;6.47;0.80;;;;;;;;;;6216936;23;20348;-54
2021/06/14 01:53:26;;;;;;;1.10;0.60;;;;;;;;;;6216634;23;20091;-55
2021/06/14 01:55:54;;;;;;;2.13;0.90;;;;;;;;;;6216701;23;20008;-54
2021/06/14 01:58:21;;;;;;;1.00;0.70;;;;;;;;;;6216933;23;20008;-52
2021/06/14 02:00:48;;;;;;;4.93;1.00;;;;;;;;;;6215261;23;20420;-52
2021/06/14 02:03:16;;;;;;;4.80;1.00;;;;;;;;;;6216744;23;20012;-52
2021/06/14 02:05:43;;;;;;;1.33;0.60;;;;;;;;;;6216636;23;20019;-52
2021/06/14 02:08:11;;;;;;;2.03;0.70;;;;;;;;;;6216712;23;20004;-52
2021/06/14 02:10:38;;;;;;;1.60;0.70;;;;;;;;;;6216758;23;20005;-54
2021/06/14 02:13:06;;;;;;;1.77;0.77;;;;;;;;;;6216698;23;20381;-54
2021/06/14 02:15:33;;;;;;;6.03;0.90;;;;;;;;;;6216917;23;20013;-54
2021/06/14 02:18:00;;;;;;;3.87;0.97;;;;;;;;;;6216819;23;20074;-52
2021/06/14 02:20:27;;;;;;;3.33;0.77;;;;;;;;;;6216744;23;20011;-51
2021/06/14 02:22:54;;;;;;;3.93;1.43;;;;;;;;;;6216623;23;20079;-52
2021/06/14 02:25:21;;;;;;;1.90;0.63;;;;;;;;;;6216421;23;20009;-51
2021/06/14 02:27:48;;;;;;;2.77;1.00;;;;;;;;;;6216623;23;20005;-52
2021/06/14 02:30:17;;;;;;;1.73;0.50;;;;;;;;;;6216565;23;20011;-52
2021/06/14 02:32:44;;;;;;;4.00;1.63;;;;;;;;;;6216672;23;20088;-51
2021/06/14 02:35:12;;;;;;;1.93;0.87;;;;;;;;;;6216421;23;20016;-51
2021/06/14 02:37:40;;;;;;;5.17;1.17;;;;;;;;;;6216449;23;20012;-52
2021/06/14 02:40:08;;;;;;;3.27;1.20;;;;;;;;;;6216475;23;20008;-52
2021/06/14 02:42:36;;;;;;;5.07;1.23;;;;;;;;;;6216477;23;20032;-51
2021/06/14 02:45:04;;;;;;;1.73;0.97;;;;;;;;;;6216417;23;20067;-51
2021/06/14 02:47:31;;;;;;;1.50;0.83;;;;;;;;;;6216434;23;20435;-52
2021/06/14 02:49:59;;;;;;;1.87;0.90;;;;;;;;;;6216339;23;20055;-51
2021/06/14 02:52:26;;;;;;;2.53;1.20;;;;;;;;;;6215975;23;20082;-52
2021/06/14 02:54:57;;;;;;;3.43;1.00;;;;;;;;;;6216166;23;20131;-52
2021/06/14 02:57:28;;;;;;;4.87;1.13;;;;;;;;;;6216425;23;20420;-52
2021/06/14 02:59:55;;;;;;;3.00;0.90;;;;;;;;;;6216307;23;20004;-52
2021/06/14 03:02:26;;;;;;;2.77;0.90;;;;;;;;;;6216209;23;20001;-51
2021/06/14 03:04:53;;;;;;;3.60;1.30;;;;;;;;;;6216158;23;20016;-52
2021/06/14 03:07:23;;;;;;;3.07;1.60;;;;;;;;;;6216248;23;20000;-52
2021/06/14 03:09:51;;;;;;;4.43;1.50;;;;;;;;;;6214634;23;20455;-51
2021/06/14 03:12:19;;;;;;;2.40;1.37;;;;;;;;;;6216200;23;20000;-51
2021/06/14 03:14:47;;;;;;;3.70;1.50;;;;;;;;;;6216026;23;20008;-52
2021/06/14 03:17:15;;;;;;;5.27;1.43;;;;;;;;;;6214548;23;20437;-52
2021/06/14 03:19:42;;;;;;;2.97;1.07;;;;;;;;;;6215932;23;20009;-51
2021/06/14 03:22:09;;;;;;;3.20;1.60;;;;;;;;;;6216145;23;20028;-52
2021/06/14 03:24:37;;;;;;;1.50;1.07;;;;;;;;;;6216111;23;20004;-52
2021/06/14 03:27:04;;;;;;;3.23;1.07;;;;;;;;;;6214498;23;20016;-51
2021/06/14 03:29:31;;;;;;;1.60;0.70;;;;;;;;;;6216112;23;20004;-52
2021/06/14 03:31:59;;;;;;;2.03;0.87;;;;;;;;;;6215975;23;20310;-51
2021/06/14 03:34:28;;;;;;;0.87;0.67;;;;;;;;;;6215859;23;20088;-52
2021/06/14 03:36:59;;;;;;;5.70;1.07;;;;;;;;;;6215675;23;20008;-52
2021/06/14 03:39:27;;;;;;;1.87;0.80;;;;;;;;;;6215953;23;20008;-52
2021/06/14 03:41:54;;;;;;;2.03;0.70;;;;;;;;;;6216077;23;20003;-51
2021/06/14 03:44:22;;;;;;;2.10;0.67;;;;;;;;;;6215708;23;20019;-52
2021/06/14 03:46:49;;;;;;;1.87;0.70;;;;;;;;;;6215933;23;20088;-52
2021/06/14 03:49:16;;;;;;;3.80;0.90;;;;;;;;;;6215938;23;20004;-52
2021/06/14 03:51:43;;;;;;;1.50;1.00;;;;;;;;;;6215858;23;20396;-52
2021/06/14 03:54:10;;;;;;;3.10;1.00;;;;;;;;;;6215330;23;20016;-53
2021/06/14 03:56:37;;;;;;;5.90;0.73;;;;;;;;;;6215804;23;20035;-52
2021/06/14 03:59:05;;;;;;;1.63;0.63;;;;;;;;;;6215845;23;20021;-53
2021/06/14 04:01:32;;;;;;;2.17;0.70;;;;;;;;;;6215763;23;20332;-53
2021/06/14 04:06:31;;;;;;;2.23;0.70;;;;;;;;;;6225760;23;20013;-53
2021/06/14 04:08:58;;;;;;;2.80;0.90;;;;;;;;;;6215583;23;20076;-53
2021/06/14 04:11:25;;;;;;;1.90;0.90;;;;;;;;;;6215664;23;20005;-53
2021/06/14 04:13:52;;;;;;;1.83;0.60;;;;;;;;;;6215657;23;20002;-53
2021/06/14 04:16:19;;;;;;;1.80;0.60;;;;;;;;;;6215486;23;20016;-54
2021/06/14 04:18:46;;;;;;;4.20;0.70;;;;;;;;;;6215475;23;20001;-54
2021/06/14 04:21:13;;;;;;;0.97;0.63;;;;;;;;;;6215308;23;20062;-54
2021/06/14 04:23:40;;;;;;;2.10;0.90;;;;;;;;;;6215373;23;20012;-54
2021/06/14 04:26:08;;;;;;;2.70;1.00;;;;;;;;;;6215331;23;20027;-53
2021/06/14 04:28:35;;;;;;;3.40;1.00;;;;;;;;;;6215239;23;20025;-54
2021/06/14 04:31:01;;;;;;;2.53;0.90;;;;;;;;;;6215284;23;20004;-53
2021/06/14 04:33:28;;;;;;;2.90;0.90;;;;;;;;;;6215226;23;19997;-54
2021/06/14 04:35:55;;;;;;;2.73;1.10;;;;;;;;;;6215042;23;20095;-54
2021/06/14 04:38:22;;;;;;;2.40;0.80;;;;;;;;;;6215094;23;20320;-54
2021/06/14 04:40:49;;;;;;;4.80;0.80;;;;;;;;;;6215247;23;20166;-54
2021/06/14 04:43:15;;;;;;;2.23;1.03;;;;;;;;;;6215252;23;20004;-54
2021/06/14 04:45:42;;;;;;;2.97;0.50;;;;;;;;;;6215284;23;20004;-54
2021/06/14 04:48:09;;;;;;;1.83;0.47;;;;;;;;;;6215321;23;20011;-54
2021/06/14 04:50:36;;;;;;;7.10;1.00;;;;;;;;;;6215064;23;20000;-54
2021/06/14 04:53:03;;;;;;;4.50;1.00;;;;;;;;;;6215096;23;20505;-54
2021/06/14 04:55:30;;;;;;;2.20;0.70;;;;;;;;;;6215159;23;20059;-54
2021/06/14 04:57:56;;;;;;;0.73;0.53;;;;;;;;;;6214012;23;20094;-53
2021/06/14 05:00:24;;;;;;;2.33;0.90;;;;;;;;;;6215214;23;20035;-53
2021/06/14 05:02:50;;;;;;;3.30;1.00;;;;;;;;;;6215599;23;20001;-53
2021/06/14 05:05:17;;;;;;;1.87;0.80;;;;;;;;;;6215166;23;20028;-52
2021/06/14 05:07:44;;;;;;;0.63;0.47;;;;;;;;;;6215381;23;20035;-53
2021/06/14 05:10:11;;;;;;;11.57;0.70;;;;;;;;;;6215153;23;20076;-52
2021/06/14 05:12:38;;;;;;;10.10;1.00;;;;;;;;;;6215228;23;20404;-52
2021/06/14 05:15:06;;;;;;;2.40;0.80;;;;;;;;;;6215003;23;20019;-52
2021/06/14 05:17:33;;;;;;;1.60;0.77;;;;;;;;;;6215239;23;20082;-52
2021/06/14 05:20:00;;;;;;;1.43;0.93;;;;;;;;;;6215280;23;20091;-53
2021/06/14 05:22:26;;;;;;;2.57;0.87;;;;;;;;;;6215159;23;20027;-53
2021/06/14 05:24:53;;;;;;;1.20;0.70;;;;;;;;;;6215056;23;20011;-52
2021/06/14 05:27:20;;;;;;;1.33;0.90;;;;;;;;;;6215189;23;20005;-53
2021/06/14 05:29:47;;;;;;;6.67;1.43;;;;;;;;;;6215113;23;20447;-53
2021/06/14 05:32:13;;;;;;;5.07;1.10;;;;;;;;;;6215245;23;20000;-53
2021/06/14 05:34:40;;;;;;;2.47;0.90;;;;;;;;;;6214896;23;20306;-52
2021/06/14 05:37:07;;;;;;;7.33;0.83;;;;;;;;;;6215046;23;20005;-53
2021/06/14 05:39:34;;;;;;;1.93;0.70;;;;;;;;;;6214906;23;20054;-53
2021/06/14 05:42:01;;;;;;;1.23;0.73;;;;;;;;;;6215483;23;20072;-53
2021/06/14 05:44:28;;;;;;;5.10;0.97;;;;;;;;;;6215110;23;20032;-52
2021/06/14 05:46:55;;;;;;;4.00;0.83;;;;;;;;;;6215049;23;20328;-53
2021/06/14 05:49:22;;;;;;;4.83;0.83;;;;;;;;;;6214966;23;20012;-52
2021/06/14 05:51:49;;;;;;;2.93;0.83;;;;;;;;;;6215016;23;20008;-52
2021/06/14 05:54:16;;;;;;;3.97;0.70;;;;;;;;;;6214537;23;20047;-53
2021/06/14 05:56:43;;;;;;;2.33;0.83;;;;;;;;;;6215029;23;20027;-52
2021/06/14 05:59:09;;;;;;;2.53;0.83;;;;;;;;;;6214962;23;20015;-53
2021/06/14 06:01:36;;;;;;;3.47;0.97;;;;;;;;;;6216229;23;20072;-52
2021/06/14 06:04:03;;;;;;;4.17;0.90;;;;;;;;;;6216914;23;20313;-52
2021/06/14 06:06:30;;;;;;;1.87;0.80;;;;;;;;;;6216761;23;20009;-52
2021/06/14 06:08:57;;;;;;;1.20;0.67;;;;;;;;;;6216901;23;20123;-52
2021/06/14 06:11:24;;;;;;;3.67;0.67;;;;;;;;;;6216889;23;20008;-52
2021/06/14 06:13:50;;;;;;;5.63;1.00;;;;;;;;;;6216851;23;20074;-52
2021/06/14 06:16:17;;;;;;;2.77;0.90;;;;;;;;;;6216543;23;20456;-55
2021/06/14 06:18:44;;;;;;;2.30;0.77;;;;;;;;;;6216752;23;20076;-52
2021/06/14 06:21:12;;;;;;;1.47;0.37;;;;;;;;;;6216639;23;20052;-52
2021/06/14 06:23:38;;;;;;;2.57;0.43;;;;;;;;;;6216722;23;20327;-52
2021/06/14 06:26:05;;;;;;;2.03;0.53;;;;;;;;;;6216621;23;20001;-53
2021/06/14 06:28:32;;;;;;;2.83;0.80;;;;;;;;;;6216585;23;20008;-52
2021/06/14 06:30:59;;;;;;;4.77;0.80;;;;;;;;;;6216577;23;20007;-52
2021/06/14 06:33:26;;;;;;;2.13;0.60;;;;;;;;;;6216566;23;20000;-52
2021/06/14 06:35:52;;;;;;;1.00;0.60;;;;;;;;;;6216507;23;20009;-52
2021/06/14 06:38:19;;;;;;;2.90;0.60;;;;;;;;;;6216567;23;20004;-52
2021/06/14 06:40:46;;;;;;;2.20;0.50;;;;;;;;;;6216492;23;20047;-52
2021/06/14 06:43:13;;;;;;;2.27;0.63;;;;;;;;;;6216505;23;20080;-52
2021/06/14 06:45:40;;;;;;;2.33;0.67;;;;;;;;;;6216361;23;20015;-52
2021/06/14 06:48:07;;;;;;;4.07;0.73;;;;;;;;;;6216458;23;20057;-53
2021/06/14 06:50:34;;;;;;;4.87;0.43;;;;;;;;;;6216537;23;20007;-52
2021/06/14 06:53:02;;;;;;;2.20;0.60;;;;;;;;;;6216316;22;20017;-52
2021/06/14 06:55:29;;;;;;;4.27;0.70;;;;;;;;;;6216221;23;20016;-52
2021/06/14 06:57:56;;;;;;;7.27;1.03;;;;;;;;;;6216327;23;20005;-52
2021/06/14 07:00:23;;;;;;;2.43;0.90;;;;;;;;;;6216331;23;20036;-52
2021/06/14 07:02:51;;;;;;;0.93;0.57;;;;;;;;;;6216651;23;20084;-53
2021/06/14 07:05:18;;;;;;;1.93;0.80;;;;;;;;;;6216252;23;20005;-52
2021/06/14 07:07:44;;;;;;;3.83;0.80;;;;;;;;;;6216403;23;20329;-53
2021/06/14 07:10:11;;;;;;;3.13;0.80;;;;;;;;;;6216177;23;20032;-54
2021/06/14 07:12:38;;;;;;;1.30;0.50;;;;;;;;;;6215889;23;20000;-53
2021/06/14 07:15:12;;;;;;;3.77;0.80;;;;;;;;;;6215930;23;20384;-53
2021/06/14 07:17:43;;;;;;;2.90;0.80;;;;;;;;;;6216375;23;20001;-52
2021/06/14 07:20:11;;;;;;;1.00;0.50;;;;;;;;;;6216178;23;20011;-52
2021/06/14 07:22:38;;;;;;;5.47;0.90;;;;;;;;;;6216198;23;20008;-52
2021/06/14 07:25:06;;;;;;;2.40;0.80;;;;;;;;;;6216039;23;20009;-52
2021/06/14 07:27:33;;;;;;;3.93;0.87;;;;;;;;;;6216071;23;20001;-52
2021/06/14 07:30:01;;;;;;;2.03;0.63;;;;;;;;;;6216166;23;20001;-52
2021/06/14 07:32:28;;;;;;;2.40;1.10;;;;;;;;;;6216106;23;20067;-52
2021/06/14 07:34:54;;;;;;;3.60;0.60;;;;;;;;;;6216284;23;20008;-52
2021/06/14 07:37:21;;;;;;;6.80;0.80;;;;;;;;;;6215923;23;20080;-52
2021/06/14 07:39:48;;;;;;;1.63;0.47;;;;;;;;;;6215886;23;20008;-52
2021/06/14 07:42:16;;;;;;;2.63;0.60;;;;;;;;;;6215909;23;20008;-52
2021/06/14 07:44:44;;;;;;;5.83;1.10;;;;;;;;;;6215941;23;20011;-53
2021/06/14 07:47:11;;;;;;;1.77;0.50;;;;;;;;;;6215999;23;20043;-52
2021/06/14 07:49:39;;;;;;;5.90;0.77;;;;;;;;;;6215800;23;20000;-52
2021/06/14 07:52:06;;;;;;;6.43;1.97;;;;;;;;;;6215824;23;20452;-52
2021/06/14 07:54:33;;;;;;;1.90;0.67;;;;;;;;;;6215569;22;20439;-52
2021/06/14 07:57:00;;;;;;;2.77;0.63;;;;;;;;;;6215957;23;20455;-52
2021/06/14 07:59:27;;;;;;;2.47;0.60;;;;;;;;;;6215827;23;20005;-53
2021/06/14 08:01:53;;;;;;;2.43;0.97;;;;;;;;;;6215737;23;20035;-52
2021/06/14 08:04:20;;;;;;;2.77;0.60;;;;;;;;;;6215589;23;20004;-52
2021/06/14 08:06:47;;;;;;;2.00;0.60;;;;;;;;;;6215700;23;20012;-52
2021/06/14 08:09:16;;;;;;;2.40;0.50;;;;;;;;;;6215793;23;20316;-52
2021/06/14 08:11:44;;;;;;;5.87;1.37;;;;;;;;;;6215631;23;20009;-52
2021/06/14 08:14:11;;;;;;;4.93;0.77;;;;;;;;;;6215557;23;20371;-52
2021/06/14 08:16:42;;;;;;;1.07;0.60;;;;;;;;;;6215611;23;20428;-52
2021/06/14 08:19:37;;;;;;;1.33;0.63;;;;;;;;;;6215704;23;20064;-52
2021/06/14 08:27:26;;;;;;;3.40;0.55;;;;;;;;;;6215733;23;20371;-52
2021/06/14 08:29:53;;;;;;;3.93;0.80;;;;;;;;;;6215462;23;20001;-52
2021/06/14 08:32:20;;;;;;;2.63;0.70;;;;;;;;;;6215426;23;20377;-53
2021/06/14 08:34:47;;;;;;;6.93;0.53;;;;;;;;;;6215412;23;20013;-52
2021/06/14 08:37:14;;;;;;;3.30;0.80;;;;;;;;;;6215459;23;20011;-52
2021/06/14 08:39:47;;;;;;;1.30;0.37;;;;;;;;;;6215188;23;20088;-52
2021/06/14 08:42:14;;;;;;;2.93;0.70;;;;;;;;;;6215328;23;20016;-52
2021/06/14 08:44:42;;;;;;;4.33;0.70;;;;;;;;;;6215224;23;20080;-52
2021/06/14 08:47:09;;;;;;;0.93;0.50;;;;;;;;;;6215449;23;20005;-53
2021/06/14 08:49:36;;;;;;;1.60;0.50;;;;;;;;;;6215408;23;20076;-52
2021/06/14 08:52:03;;;;;;;7.03;1.37;;;;;;;;;;6215330;23;20063;-51
2021/06/14 08:54:30;;;;;;;2.37;0.60;;;;;;;;;;6214788;23;20444;-52
2021/06/14 08:56:57;;;;;;;3.60;0.87;;;;;;;;;;6215269;23;20019;-52
2021/06/14 08:59:24;;;;;;;1.80;0.70;;;;;;;;;;6215371;23;19997;-51
2021/06/14 09:01:51;;;;;;;1.37;0.60;;;;;;;;;;6215147;23;20004;-52
2021/06/14 09:04:19;;;;;;;3.10;0.73;;;;;;;;;;6215063;23;20007;-52
2021/06/14 09:06:46;;;;;;;1.67;0.50;;;;;;;;;;6215305;23;20329;-52
2021/06/14 09:09:13;;;;;;;1.97;0.50;;;;;;;;;;6215224;23;20035;-52
2021/06/14 09:11:48;;;;;;;0.63;0.50;;;;;;;;;;6215226;23;20084;-51
2021/06/14 09:14:14;;;;;;;;;;;;;;;;;;6215870;23;20013;-52
2021/06/14 09:16:41;;;;;;;5.23;0.60;;;;;;;;;;6215188;23;20216;-52
2021/06/14 09:19:22;;;;;;;0.97;0.47;;;;;;;;;;6215278;23;20024;-52
2021/06/14 09:21:54;;;;;;;4.20;0.90;;;;;;;;;;6215180;23;20032;-52
2021/06/14 09:24:21;;;;;;;2.07;0.90;;;;;;;;;;6215096;23;20005;-53
2021/06/14 09:26:48;;;;;;;4.30;0.80;;;;;;;;;;6215113;23;20005;-52
2021/06/14 09:29:16;;;;;;;5.73;0.60;;;;;;;;;;6215103;23;20004;-52
2021/06/14 09:31:53;;;;;;;1.87;0.70;;;;;;;;;;6215178;23;20001;-52
2021/06/14 09:34:31;;;;;;;4.00;0.50;;;;;;;;;;6214999;23;20004;-52
2021/06/14 09:36:59;;;;;;;3.87;0.50;;;;;;;;;;6216878;23;20032;-52
2021/06/14 09:39:26;;;;;;;1.37;0.60;;;;;;;;;;6217021;23;20005;-52
2021/06/14 09:41:53;;;;;;;1.17;0.50;;;;;;;;;;6217108;23;20011;-52
2021/06/14 09:44:28;;;;;;;1.60;0.63;;;;;;;;;;6215495;23;20016;-52
2021/06/14 09:47:02;;;;;;;4.75;0.52;;;;;;;;;;6217557;23;20007;-52
2021/06/14 09:49:28;;;;;;;10.70;1.20;;;;;;;;;;6217169;23;20088;-52
2021/06/14 09:51:56;;;;;;;2.73;0.80;;;;;;;;;;6217059;23;20428;-52
2021/06/14 09:54:30;;;;;;;2.37;1.03;;;;;;;;;;6216497;23;20028;-52
2021/06/14 09:56:58;;;;;;;1.70;0.70;;;;;;;;;;6216989;23;20009;-52
2021/06/14 09:59:28;;;;;;;4.07;1.17;;;;;;;;;;6216919;23;20001;-52
2021/06/14 10:02:10;;;;;;;5.60;0.90;;;;;;;;;;6216897;23;20005;-52
2021/06/14 10:04:37;;;;;;;2.80;0.60;;;;;;;;;;6216838;23;20028;-52
2021/06/14 10:07:11;;;;;;;1.60;0.53;;;;;;;;;;6216825;23;20001;-52
2021/06/14 10:09:50;;;;;;;3.90;0.93;;;;;;;;;;6216946;23;20056;-52
2021/06/14 10:12:21;;;;;;;1.00;0.50;;;;;;;;;;6217104;23;20004;-52
2021/06/14 10:14:56;;;;;;;0.93;0.50;;;;;;;;;;6216580;23;20071;-51
2021/06/14 10:17:35;;;;;;;3.80;0.80;;;;;;;;;;6217180;23;20004;-51
2021/06/14 10:20:31;;;;;;;1.60;0.50;;;;;;;;;;6216859;23;20008;-52
2021/06/14 10:22:59;;;;;;;0.93;0.40;;;;;;;;;;6191678;23;20005;-52
2021/06/14 10:25:26;;;;;;;1.37;0.60;;;;;;;;;;6216625;23;20001;-52
2021/06/14 10:27:53;;;;;;;3.60;0.80;;;;;;;;;;6216762;23;20001;-51
2021/06/14 10:30:21;;;;;;;3.53;0.67;;;;;;;;;;6216598;23;19997;-52
2021/06/14 10:32:48;;;;;;;1.70;0.50;;;;;;;;;;6216722;23;20011;-52
2021/06/14 10:35:18;;;;;;;1.47;0.73;;;;;;;;;;6216547;23;20008;-52
2021/06/14 10:37:47;;;;;;;0.77;0.43;;;;;;;;;;6216630;23;20008;-51
2021/06/14 10:40:15;;;;;;;2.17;0.77;;;;;;;;;;6216984;23;20004;-52
2021/06/14 10:42:45;;;;;;;1.57;0.60;;;;;;;;;;6216629;23;19997;-51
2021/06/14 10:45:12;;;;;;;3.03;0.80;;;;;;;;;;6216601;23;20067;-52
2021/06/14 10:47:42;;;;;;;2.37;0.40;;;;;;;;;;6215883;23;20005;-51
2021/06/14 10:50:12;;;;;;;0.77;0.57;;;;;;;;;;6216442;23;20032;-51
2021/06/14 10:52:48;;;;;;;0.60;0.50;;;;;;;;;;6216409;23;20004;-52
2021/06/14 10:55:19;;;;;;;2.07;0.70;;;;;;;;;;6215918;22;20020;-52
2021/06/14 10:57:46;;;;;;;1.43;0.40;;;;;;;;;;6216468;23;20001;-51
2021/06/14 11:00:31;;;;;;;3.70;1.13;;;;;;;;;;6216277;23;20015;-52
2021/06/14 11:03:05;;;;;;;1.42;0.50;;;;;;;;;;6216365;23;20028;-52
2021/06/14 11:05:33;;;;;;;1.73;0.70;;;;;;;;;;6216235;23;20383;-52
2021/06/14 11:08:10;;;;;;;1.20;0.60;;;;;;;;;;6216340;23;20086;-52
2021/06/14 11:10:37;;;;;;;2.47;0.63;;;;;;;;;;6216434;23;20000;-51
2021/06/14 11:13:08;;;;;;;1.53;0.60;;;;;;;;;;6216304;23;20008;-52
2021/06/14 11:15:35;;;;;;;2.03;0.80;;;;;;;;;;6216032;23;20510;-51
2021/06/14 11:18:06;;;;;;;1.30;0.40;;;;;;;;;;6216369;23;20000;-52
2021/06/14 11:20:39;;;;;;;1.40;0.47;;;;;;;;;;6216330;23;20008;-52
2021/06/14 11:23:06;;;;;;;1.03;0.60;;;;;;;;;;6216097;23;20007;-52
2021/06/14 11:25:43;;;;;;;1.03;0.47;;;;;;;;;;6216057;23;20000;-52
2021/06/14 11:28:10;;;;;;;4.33;0.60;;;;;;;;;;6216537;23;20009;-52
2021/06/14 11:30:39;;;;;;;0.83;0.50;;;;;;;;;;6216117;23;20005;-51
2021/06/14 11:33:08;;;;;;;0.70;0.50;;;;;;;;;;6216154;23;20058;-52
2021/06/14 11:35:35;;;;;;;4.43;0.50;;;;;;;;;;6215902;23;20341;-52
2021/06/14 11:38:03;;;;;;;1.77;0.50;;;;;;;;;;6215972;23;20004;-52
2021/06/14 11:40:34;;;;;;;7.27;0.70;;;;;;;;;;6216143;23;20087;-51
2021/06/14 11:43:09;;;;;;;2.57;0.63;;;;;;;;;;6216097;23;20071;-51
2021/06/14 11:45:42;;;;;;;7.50;1.17;;;;;;;;;;6215902;23;20075;-51
2021/06/14 11:48:32;;;;;;;1.77;0.47;;;;;;;;;;6216097;23;20068;-52
2021/06/14 11:51:03;;;;;;;4.30;0.70;;;;;;;;;;6215971;23;20119;-51
2021/06/14 11:53:30;;;;;;;3.33;0.60;;;;;;;;;;6215663;23;20012;-51
2021/06/14 11:56:03;;;;;;;1.80;0.70;;;;;;;;;;6215498;23;20017;-51
2021/06/14 11:58:33;;;;;;;3.83;1.20;;;;;;;;;;6215648;23;20427;-51
2021/06/14 12:01:05;;;;;;;4.47;0.93;;;;;;;;;;6215898;23;20497;-52
2021/06/14 12:03:32;;;;;;;1.73;0.57;;;;;;;;;;6215754;23;20080;-51
2021/06/14 12:05:59;;;;;;;0.53;0.40;;;;;;;;;;6215582;23;20009;-52
2021/06/14 12:08:26;;;;;;;1.03;0.57;;;;;;;;;;6215674;23;20000;-51
2021/06/14 12:10:56;;;;;;;0.80;0.47;;;;;;;;;;6216002;23;20297;-51
2021/06/14 12:13:23;;;;;;;1.27;0.80;;;;;;;;;;6215729;23;19996;-51
2021/06/14 12:15:52;;;;;;;1.10;0.60;;;;;;;;;;6215463;23;20016;-51
2021/06/14 12:18:19;;;;;;;2.90;0.53;;;;;;;;;;6215583;23;20004;-53
2021/06/14 12:20:48;;;;;;;0.97;0.40;;;;;;;;;;6215613;23;20005;-52
2021/06/14 12:23:16;;;;;;;1.23;0.70;;;;;;;;;;6215603;23;20007;-52
2021/06/14 12:25:51;;;;;;;1.80;0.60;;;;;;;;;;6215353;23;20009;-51
2021/06/14 12:28:19;;;;;;;1.48;0.70;;;;;;;;;;6215494;23;20000;-51
2021/06/14 12:30:47;;;;;;;2.20;0.90;;;;;;;;;;6215682;23;20103;-51
2021/06/14 12:33:34;;;;;;;4.33;0.83;;;;;;;;;;6215498;23;20012;-51
2021/06/14 12:36:01;;;;;;;4.60;0.70;;;;;;;;;;6215605;23;20019;-52
2021/06/14 12:38:32;;;;;;;1.30;0.70;;;;;;;;;;6215304;23;20371;-52
2021/06/14 12:41:02;;;;;;;3.70;0.77;;;;;;;;;;6215387;23;20009;-51
2021/06/14 12:43:33;;;;;;;1.33;0.70;;;;;;;;;;6215386;23;20062;-51
2021/06/14 12:46:00;;;;;;;2.53;0.60;;;;;;;;;;6215258;23;20071;-51
2021/06/14 12:48:34;;;;;;;3.10;0.60;;;;;;;;;;6215441;23;20029;-52
2021/06/14 12:51:00;;;;;;;3.03;0.50;;;;;;;;;;6215317;23;20005;-51
2021/06/14 12:53:40;;;;;;;3.47;0.63;;;;;;;;;;6215002;22;20075;-52
2021/06/14 12:56:07;;;;;;;1.37;0.70;;;;;;;;;;6215460;23;20079;-51
2021/06/14 12:58:40;;;;;;;1.20;0.53;;;;;;;;;;6215307;23;20451;-51
2021/06/14 13:01:10;;;;;;;0.60;0.37;;;;;;;;;;6215623;23;20083;-52
2021/06/14 13:03:38;;;;;;;3.50;0.50;;;;;;;;;;6215343;23;20008;-51
2021/06/14 13:06:06;;;;;;;1.43;0.70;;;;;;;;;;6215126;23;20425;-52
2021/06/14 13:08:34;;;;;;;2.57;0.90;;;;;;;;;;6215139;23;20000;-51
2021/06/14 13:11:01;;;;;;;3.77;0.80;;;;;;;;;;6214798;23;20328;-51
2021/06/14 13:13:29;;;;;;;1.37;0.60;;;;;;;;;;6215262;23;20004;-51
2021/06/14 13:16:14;;;;;;;0.97;0.70;;;;;;;;;;6215100;23;20036;-52
2021/06/14 13:18:42;;;;;;;3.72;1.15;;;;;;;;;;6215175;23;20009;-52
2021/06/14 13:21:11;;;;;;;3.20;1.10;;;;;;;;;;6215513;23;20004;-51
2021/06/14 13:23:51;;;;;;;3.13;1.23;;;;;;;;;;6215079;23;20084;-51
2021/06/14 13:26:18;;;;;;;3.43;1.27;;;;;;;;;;6215246;23;20001;-51
2021/06/14 13:28:45;;;;;;;3.10;1.30;;;;;;;;;;6215154;23;20005;-51
2021/06/14 13:31:12;;;;;;;2.50;1.50;;;;;;;;;;6215165;23;20365;-51
2021/06/14 13:33:44;;;;;;;3.87;1.30;;;;;;;;;;6215460;23;20000;-51
2021/06/14 13:36:12;;;;;;;2.27;1.17;;;;;;;;;;6215452;23;20032;-51
2021/06/14 13:38:40;;;;;;;1.73;0.90;;;;;;;;;;6214996;23;20001;-52
2021/06/14 13:41:08;;;;;;;3.73;1.43;;;;;;;;;;6215195;23;20011;-51
2021/06/14 13:43:37;;;;;;;4.00;2.20;;;;;;;;;;6214978;23;20030;-52
2021/06/14 13:46:05;;;;;;;7.00;3.47;;;;;;;;;;6215010;23;20004;-51
2021/06/14 13:49:02;;;;;;;;;;;;;;;;;;;;;
2021/06/14 13:51:32;;;;;;;6.83;2.60;;;;;;;;;;6212643;23;20080;-52
2021/06/14 13:54:05;;;;;;;7.80;2.60;;;;;;;;;;6214642;23;20017;-52
2021/06/14 13:56:52;;;;;;;5.03;1.90;;;;;;;;;;6214972;23;20012;-51
2021/06/14 13:59:33;;;;;;;8.60;1.93;;;;;;;;;;6214707;23;20063;-51
2021/06/14 14:02:02;;;;;;;4.40;2.00;;;;;;;;;;6215040;23;20321;-51
2021/06/14 14:04:42;;;;;;;6.83;3.00;;;;;;;;;;6214851;23;20013;-52
2021/06/14 14:07:08;;;;;;;4.57;2.30;;;;;;;;;;6213935;23;20424;-51
2021/06/14 14:09:49;;;;;;;6.80;3.00;;;;;;;;;;6215024;23;20320;-51
2021/06/14 14:12:22;;;;;;;9.07;2.53;;;;;;;;;;6213447;23;20367;-52
2021/06/14 14:15:12;;;;;;;6.27;3.20;;;;;;;;;;6214428;23;20012;-52
2021/06/14 14:17:46;;;;;;;6.10;2.93;;;;;;;;;;6213641;23;20084;-52
2021/06/14 14:20:22;;;;;;;7.07;3.07;;;;;;;;;;6212181;23;20036;-52
2021/06/14 14:22:56;;;;;;;6.03;3.13;;;;;;;;;;6215001;23;20249;-52
2021/06/14 14:25:25;;;;;;;6.57;3.10;;;;;;;;;;6217001;23;20005;-51
2021/06/14 14:28:02;;;;;;;6.97;3.53;;;;;;;;;;6216670;23;20001;-51
2021/06/14 14:30:49;;;;;;;4.07;2.10;;;;;;;;;;6216718;23;20004;-52
2021/06/14 14:33:21;;;;;;;3.73;1.80;;;;;;;;;;6216713;23;20004;-52
2021/06/14 14:36:19;;;;;;;5.53;2.50;;;;;;;;;;6215487;23;20012;-52
2021/06/14 14:38:52;;;;;;;4.57;1.37;;;;;;;;;;6215157;23;20004;-52
2021/06/14 14:41:21;;;;;;;4.27;1.43;;;;;;;;;;6216184;23;20432;-52
2021/06/14 14:43:56;;;;;;;4.77;1.67;;;;;;;;;;6216430;23;20004;-53
2021/06/14 14:46:31;;;;;;;7.23;2.20;;;;;;;;;;6216528;23;20000;-52
2021/06/14 14:49:19;;;;;;;6.57;2.53;;;;;;;;;;6216781;23;20428;-53
2021/06/14 14:51:58;;;;;;;4.23;1.77;;;;;;;;;;6216504;23;20001;-53
2021/06/14 14:55:12;;;;;;;;;;;;;;;;;;;;;
2021/06/14 14:57:48;;;;;;;5.53;1.97;;;;;;;;;;6207499;23;20084;-53
2021/06/14 15:00:20;;;;;;;2.73;1.50;;;;;;;;;;6216409;23;20011;-52
2021/06/14 15:02:51;;;;;;;4.43;1.60;;;;;;;;;;6215119;23;20471;-53
2021/06/14 15:05:24;;;;;;;7.70;1.70;;;;;;;;;;6216306;23;19996;-53
2021/06/14 15:07:56;;;;;;;3.93;2.10;;;;;;;;;;6216453;23;20076;-53